createdAt,value
2022-11-17T00:02:19.318Z,93692.44
2022-11-17T00:04:45.999Z,93695.03
2022-11-17T00:07:12.622Z,93696.00
2022-11-17T00:09:39.241Z,93697.69
2022-11-17T00:12:27.270Z,93689.59
2022-11-17T00:14:57.945Z,93695.56
2022-11-17T00:17:24.482Z,93689.41
2022-11-17T00:20:09.736Z,93681.94
2022-11-17T00:22:36.237Z,93676.94
2022-11-17T00:25:02.798Z,93677.19
2022-11-17T00:27:29.285Z,93678.00
2022-11-17T00:29:56.912Z,93672.69
2022-11-17T00:32:42.007Z,93673.50
2022-11-17T00:35:08.609Z,93677.34
2022-11-17T00:38:00.249Z,93673.16
2022-11-17T00:40:27.162Z,93671.97
2022-11-17T00:42:53.670Z,93673.63
2022-11-17T00:45:20.208Z,93672.19
2022-11-17T00:47:47.781Z,93676.88
2022-11-17T00:50:14.679Z,93669.84
2022-11-17T00:52:41.195Z,93669.41
2022-11-17T00:55:08.040Z,93672.84
2022-11-17T00:57:34.629Z,93666.97
2022-11-17T01:00:01.193Z,93674.06
2022-11-17T01:02:27.712Z,93669.41
2022-11-17T01:04:54.217Z,93662.75
2022-11-17T01:07:22.686Z,93664.84
2022-11-17T01:09:49.266Z,93670.06
2022-11-17T01:12:15.766Z,93663.22
2022-11-17T01:14:42.355Z,93660.81
2022-11-17T01:17:09.052Z,93658.34
2022-11-17T01:19:35.572Z,93660.53
2022-11-17T01:22:02.055Z,93665.97
2022-11-17T01:24:28.633Z,93667.94
2022-11-17T01:26:55.120Z,93668.13
2022-11-17T01:29:21.654Z,93673.97
2022-11-17T01:31:51.609Z,93678.47
2022-11-17T01:34:18.675Z,93682.66
2022-11-17T01:37:04.029Z,93683.34
2022-11-17T01:39:31.359Z,93678.69
2022-11-17T01:41:58.231Z,93669.22
2022-11-17T01:44:44.483Z,93669.25
2022-11-17T01:47:20.695Z,93670.47
2022-11-17T01:49:49.806Z,93663.75
2022-11-17T01:52:16.511Z,93657.28
2022-11-17T01:54:46.433Z,93657.09
2022-11-17T01:57:19.474Z,93649.09
2022-11-17T01:59:52.346Z,93637.88
2022-11-17T02:02:19.836Z,93644.28
2022-11-17T02:05:16.135Z,93653.94
2022-11-17T02:07:43.108Z,93663.66
2022-11-17T02:10:09.656Z,93652.59
2022-11-17T02:12:36.793Z,93643.00
2022-11-17T02:15:04.227Z,93626.47
2022-11-17T02:17:37.674Z,93629.50
2022-11-17T02:20:17.697Z,93625.22
2022-11-17T02:23:24.067Z,93628.25
2022-11-17T02:26:00.164Z,93615.34
2022-11-17T02:28:30.292Z,93598.97
2022-11-17T02:31:18.378Z,93595.59
2022-11-17T02:34:03.226Z,93593.69
2022-11-17T02:36:29.747Z,93594.56
2022-11-17T02:39:11.042Z,93590.34
2022-11-17T02:41:41.852Z,93583.53
2022-11-17T02:44:15.950Z,93585.94
2022-11-17T02:46:51.145Z,93585.78
2022-11-17T02:49:23.907Z,93570.91
2022-11-17T02:51:53.922Z,93571.31
2022-11-17T02:54:22.933Z,93570.00
2022-11-17T02:56:49.494Z,93568.84
2022-11-17T02:59:21.075Z,93570.91
2022-11-17T03:02:25.007Z,93576.19
2022-11-17T03:05:09.702Z,93564.13
2022-11-17T03:07:45.240Z,93562.53
2022-11-17T03:10:20.281Z,93560.31
2022-11-17T03:13:08.793Z,93546.00
2022-11-17T03:15:41.501Z,93547.22
2022-11-17T03:18:29.500Z,93536.75
2022-11-17T03:21:09.494Z,93537.16
2022-11-17T03:24:00.703Z,93538.16
2022-11-17T03:26:33.515Z,93543.59
2022-11-17T03:29:03.380Z,93531.09
2022-11-17T03:31:32.209Z,93536.94
2022-11-17T03:34:00.877Z,93532.09
2022-11-17T03:36:34.796Z,93527.09
2022-11-17T03:39:11.457Z,93527.69
2022-11-17T03:41:42.786Z,93521.22
2022-11-17T03:44:11.117Z,93525.66
2022-11-17T03:46:39.065Z,93526.47
2022-11-17T03:49:39.661Z,93514.78
2022-11-17T03:52:06.910Z,93509.53
2022-11-17T03:54:35.189Z,93501.28
2022-11-17T03:58:16.484Z,93504.28
2022-11-17T04:00:44.028Z,93496.03
2022-11-17T04:03:10.529Z,93494.81
2022-11-17T04:05:37.059Z,93490.16
2022-11-17T04:08:03.598Z,93482.31
2022-11-17T04:10:30.200Z,93469.22
2022-11-17T04:13:15.315Z,93473.63
2022-11-17T04:15:57.229Z,93471.03
2022-11-17T04:18:23.849Z,93460.56
2022-11-17T04:20:52.753Z,93470.03
2022-11-17T04:23:19.959Z,93470.03
2022-11-17T04:26:10.241Z,93468.19
2022-11-17T04:28:40.026Z,93462.94
2022-11-17T04:31:13.994Z,93463.34
2022-11-17T04:33:41.620Z,93469.97
2022-11-17T04:36:09.506Z,93468.97
2022-11-17T04:38:36.348Z,93467.38
2022-11-17T04:41:26.969Z,93461.31
2022-11-17T04:43:53.862Z,93451.63
2022-11-17T04:46:21.684Z,93459.31
2022-11-17T04:48:48.652Z,93458.72
2022-11-17T04:51:16.733Z,93457.69
2022-11-17T04:53:44.212Z,93459.50
2022-11-17T04:56:11.172Z,93458.47
2022-11-17T04:58:37.733Z,93454.88
2022-11-17T05:01:13.247Z,93449.59
2022-11-17T05:03:59.993Z,93450.81
2022-11-17T05:06:37.344Z,93448.19
2022-11-17T05:09:10.463Z,93445.38
2022-11-17T05:11:55.534Z,93449.81
2022-11-17T05:14:25.077Z,93458.47
2022-11-17T05:17:11.955Z,93456.66
2022-11-17T05:19:41.150Z,93474.41
2022-11-17T05:22:27.925Z,93479.66
2022-11-17T05:24:54.706Z,93470.34
2022-11-17T05:27:22.739Z,93485.50
2022-11-17T05:29:49.775Z,93494.56
2022-11-17T05:32:16.639Z,93501.44
2022-11-17T05:34:43.258Z,93539.19
2022-11-17T05:37:10.306Z,93539.38
2022-11-17T05:39:36.839Z,93540.19
2022-11-17T05:42:03.533Z,93558.53
2022-11-17T05:44:30.091Z,93553.28
2022-11-17T05:46:56.620Z,93535.56
2022-11-17T05:49:23.964Z,93535.97
2022-11-17T05:51:52.953Z,93544.63
2022-11-17T05:54:20.250Z,93548.06
2022-11-17T05:56:52.510Z,93547.44
2022-11-17T05:59:28.040Z,93551.06
2022-11-17T06:02:06.776Z,93564.19
2022-11-17T06:04:33.366Z,93568.03
2022-11-17T06:07:01.235Z,93567.22
2022-11-17T06:09:31.313Z,93559.78
2022-11-17T06:12:04.103Z,93550.50
2022-11-17T06:14:32.708Z,93557.13
2022-11-17T06:17:09.266Z,93548.44
2022-11-17T06:19:41.731Z,93557.53
2022-11-17T06:22:13.308Z,93551.69
2022-11-17T06:24:43.087Z,93547.88
2022-11-17T06:27:14.600Z,93527.88
2022-11-17T06:29:44.996Z,93515.75
2022-11-17T06:32:16.541Z,93504.06
2022-11-17T06:34:48.034Z,93504.25
2022-11-17T06:37:18.696Z,93497.00
2022-11-17T06:39:45.211Z,93509.50
2022-11-17T06:42:12.153Z,93505.88
2022-11-17T06:44:39.224Z,93516.78
2022-11-17T06:47:05.924Z,93523.03
2022-11-17T06:49:32.469Z,93526.66
2022-11-17T06:51:59.015Z,93520.81
2022-11-17T06:54:25.656Z,93525.06
2022-11-17T06:56:52.527Z,93532.50
2022-11-17T06:59:19.146Z,93523.44
2022-11-17T07:01:45.737Z,93523.00
2022-11-17T07:04:12.337Z,93537.53
2022-11-17T07:06:39.159Z,93520.41
2022-11-17T07:09:05.771Z,93520.56
2022-11-17T07:11:36.247Z,93524.19
2022-11-17T07:14:03.017Z,93531.88
2022-11-17T07:16:30.776Z,93550.47
2022-11-17T07:18:59.391Z,93568.59
2022-11-17T07:21:26.191Z,93552.47
2022-11-17T07:23:52.837Z,93547.63
2022-11-17T07:26:19.556Z,93549.22
2022-11-17T07:28:46.156Z,93560.94
2022-11-17T07:31:12.735Z,93572.88
2022-11-17T07:33:39.282Z,93563.56
2022-11-17T07:36:11.105Z,93579.72
2022-11-17T07:38:39.983Z,93577.31
2022-11-17T07:41:09.128Z,93576.28
2022-11-17T07:43:36.961Z,93561.53
2022-11-17T07:46:21.634Z,93548.81
2022-11-17T07:48:48.283Z,93545.53
2022-11-17T07:51:15.906Z,93571.19
2022-11-17T07:53:42.482Z,93565.72
2022-11-17T07:56:11.356Z,93575.81
2022-11-17T07:58:39.211Z,93561.91
2022-11-17T08:01:07.583Z,93569.97
2022-11-17T08:03:34.681Z,93565.50
2022-11-17T08:06:03.023Z,93566.88
2022-11-17T08:08:29.615Z,93584.88
2022-11-17T08:10:56.235Z,93590.16
2022-11-17T08:13:24.255Z,93593.44
2022-11-17T08:15:56.788Z,93603.50
2022-11-17T08:18:23.590Z,93605.34
2022-11-17T08:20:50.224Z,93613.00
2022-11-17T08:23:16.943Z,93630.19
2022-11-17T08:25:44.091Z,93642.88
2022-11-17T08:28:10.736Z,93651.75
2022-11-17T08:30:37.301Z,93655.22
2022-11-17T08:33:03.995Z,93661.03
2022-11-17T08:35:37.108Z,93642.28
2022-11-17T08:38:04.380Z,93626.47
2022-11-17T08:40:31.006Z,93614.34
2022-11-17T08:43:01.410Z,93603.38
2022-11-17T08:45:28.734Z,93587.41
2022-11-17T08:47:58.418Z,93578.28
2022-11-17T08:50:25.477Z,93566.72
2022-11-17T08:52:53.008Z,93573.47
2022-11-17T08:55:19.874Z,93577.81
2022-11-17T08:57:46.568Z,93556.66
2022-11-17T09:00:13.741Z,93548.22
2022-11-17T09:02:40.523Z,93554.47
2022-11-17T09:05:07.637Z,93559.19
2022-11-17T09:07:35.659Z,93549.34
2022-11-17T09:10:04.511Z,93548.44
2022-11-17T09:12:31.640Z,93557.38
2022-11-17T09:14:58.217Z,93549.97
2022-11-17T09:17:24.797Z,93558.50
2022-11-17T09:19:51.373Z,93571.47
2022-11-17T09:22:18.027Z,93571.75
2022-11-17T09:24:44.541Z,93563.78
2022-11-17T09:27:11.233Z,93568.00
2022-11-17T09:29:37.754Z,93561.06
2022-11-17T09:32:04.416Z,93557.69
2022-11-17T09:34:31.123Z,93569.03
2022-11-17T09:36:57.795Z,93560.06
2022-11-17T09:39:24.389Z,93562.53
2022-11-17T09:41:54.982Z,93557.38
2022-11-17T09:44:24.488Z,93549.94
2022-11-17T09:47:01.888Z,93556.22
2022-11-17T09:49:39.847Z,93556.25
2022-11-17T09:52:17.549Z,93556.97
2022-11-17T09:54:52.078Z,93566.47
2022-11-17T09:57:27.250Z,93558.56
2022-11-17T10:00:05.915Z,93556.25
2022-11-17T10:02:33.101Z,93559.13
2022-11-17T10:05:00.602Z,93558.16
2022-11-17T10:07:30.459Z,93561.69
2022-11-17T10:10:00.089Z,93566.13
2022-11-17T10:12:36.220Z,93560.94
2022-11-17T10:15:20.643Z,93569.75
2022-11-17T10:17:47.267Z,93568.34
2022-11-17T10:20:16.975Z,93566.28
2022-11-17T10:22:45.320Z,93571.81
2022-11-17T10:25:22.238Z,93571.72
2022-11-17T10:27:53.973Z,93566.31
2022-11-17T10:30:24.129Z,93566.28
2022-11-17T10:32:56.010Z,93567.09
2022-11-17T10:35:26.818Z,93567.09
2022-11-17T10:38:13.330Z,93572.03
2022-11-17T10:40:39.879Z,93574.91
2022-11-17T10:43:12.482Z,93579.91
2022-11-17T10:45:49.118Z,93579.47
2022-11-17T10:48:33.317Z,93578.44
2022-11-17T10:51:01.381Z,93564.22
2022-11-17T10:53:42.981Z,93572.84
2022-11-17T10:56:18.897Z,93561.34
2022-11-17T10:59:12.604Z,93559.25
2022-11-17T11:01:42.271Z,93561.06
2022-11-17T11:04:27.082Z,93563.69
2022-11-17T11:07:21.468Z,93559.78
2022-11-17T11:10:17.575Z,93561.97
2022-11-17T11:12:59.235Z,93569.69
2022-11-17T11:15:32.928Z,93568.81
2022-11-17T11:17:59.506Z,93554.56
2022-11-17T11:20:47.455Z,93559.56
2022-11-17T11:23:43.239Z,93569.47
2022-11-17T11:26:41.308Z,93573.41
2022-11-17T11:29:46.797Z,93573.00
2022-11-17T11:32:53.766Z,93582.97
2022-11-17T11:35:36.518Z,93595.56
2022-11-17T11:38:15.139Z,93598.91
2022-11-17T11:40:50.899Z,93598.34
2022-11-17T11:43:59.364Z,93599.41
2022-11-17T11:46:51.504Z,93595.63
2022-11-17T11:49:34.530Z,93586.72
2022-11-17T11:52:06.227Z,93586.28
2022-11-17T11:54:40.418Z,93579.25
2022-11-17T11:57:12.434Z,93580.31
2022-11-17T11:59:49.154Z,93568.94
2022-11-17T12:02:24.022Z,93573.94
2022-11-17T12:04:55.202Z,93572.16
2022-11-17T12:07:35.476Z,93578.25
2022-11-17T12:10:54.388Z,93581.41
2022-11-17T12:13:23.852Z,93584.63
2022-11-17T12:15:50.745Z,93582.03
2022-11-17T12:18:17.279Z,93577.63
2022-11-17T12:20:55.559Z,93582.66
2022-11-17T12:23:38.299Z,93581.41
2022-11-17T12:26:05.198Z,93579.19
2022-11-17T12:28:36.085Z,93585.69
2022-11-17T12:31:10.170Z,93570.41
2022-11-17T12:33:51.941Z,93561.47
2022-11-17T12:36:30.203Z,93570.50
2022-11-17T12:38:59.098Z,93568.97
2022-11-17T12:41:47.076Z,93573.44
2022-11-17T12:44:32.113Z,93575.03
2022-11-17T12:47:10.155Z,93563.31
2022-11-17T12:50:12.569Z,93564.75
2022-11-17T12:52:47.261Z,93574.09
2022-11-17T12:55:28.782Z,93575.88
2022-11-17T12:58:10.196Z,93575.13
2022-11-17T13:01:09.672Z,93571.28
2022-11-17T13:03:45.630Z,93574.41
2022-11-17T13:09:11.765Z,93568.72
2022-11-17T13:11:38.689Z,93564.97
2022-11-17T13:14:16.370Z,93566.31
2022-11-17T13:16:51.024Z,93571.00
2022-11-17T13:19:37.225Z,93559.63
2022-11-17T13:22:16.306Z,93562.72
2022-11-17T13:24:45.897Z,93567.38
2022-11-17T13:27:29.276Z,93559.03
2022-11-17T13:30:28.069Z,93570.81
2022-11-17T13:32:56.400Z,93568.66
2022-11-17T13:35:27.305Z,93566.41
2022-11-17T13:38:12.233Z,93559.25
2022-11-17T13:40:40.782Z,93555.00
2022-11-17T13:43:13.050Z,93559.47
2022-11-17T13:45:40.409Z,93553.16
2022-11-17T13:48:06.981Z,93565.44
2022-11-17T13:50:37.227Z,93554.50
2022-11-17T13:53:24.177Z,93565.75
2022-11-17T13:55:51.833Z,93569.84
2022-11-17T13:58:41.106Z,93572.56
2022-11-17T14:01:11.762Z,93573.78
2022-11-17T14:03:40.078Z,93574.91
2022-11-17T14:06:14.336Z,93578.59
2022-11-17T14:09:01.130Z,93581.97
2022-11-17T14:11:29.324Z,93591.25
2022-11-17T14:14:01.035Z,93591.19
2022-11-17T14:16:34.601Z,93583.63
2022-11-17T14:19:05.682Z,93591.28
2022-11-17T14:21:32.617Z,93586.78
2022-11-17T14:24:03.438Z,93586.19
2022-11-17T14:26:30.706Z,93589.75
2022-11-17T14:29:02.176Z,93590.06
2022-11-17T14:31:30.146Z,93574.88
2022-11-17T14:33:57.098Z,93586.00
2022-11-17T14:36:23.951Z,93578.47
2022-11-17T14:38:50.729Z,93576.91
2022-11-17T14:41:18.661Z,93576.72
2022-11-17T14:43:45.453Z,93585.66
2022-11-17T14:46:24.623Z,93581.44
2022-11-17T14:48:52.620Z,93575.47
2022-11-17T14:51:20.836Z,93571.09
2022-11-17T14:53:47.903Z,93581.88
2022-11-17T14:56:19.488Z,93580.84
2022-11-17T14:58:47.413Z,93576.66
2022-11-17T15:01:19.921Z,93573.09
2022-11-17T15:03:46.863Z,93577.13
2022-11-17T15:06:19.312Z,93573.22
2022-11-17T15:08:47.071Z,93575.84
2022-11-17T15:11:17.487Z,93574.28
2022-11-17T15:13:44.505Z,93570.38
2022-11-17T15:16:11.886Z,93571.19
2022-11-17T15:18:42.487Z,93568.34
2022-11-17T15:21:11.064Z,93563.75
2022-11-17T15:23:39.757Z,93563.88
2022-11-17T15:26:08.762Z,93563.13
2022-11-17T15:28:35.433Z,93560.94
2022-11-17T15:31:13.259Z,93550.84
2022-11-17T15:33:44.259Z,93557.28
2022-11-17T15:36:13.193Z,93549.81
2022-11-17T15:38:40.336Z,93551.53
2022-11-17T15:41:08.379Z,93550.41
2022-11-17T15:43:37.498Z,93556.22
2022-11-17T15:46:10.198Z,93566.13
2022-11-17T15:48:44.369Z,93570.34
2022-11-17T15:51:16.107Z,93564.38
2022-11-17T15:53:44.019Z,93568.25
2022-11-17T15:56:15.282Z,93562.63
2022-11-17T15:58:43.110Z,93569.50
2022-11-17T16:01:12.286Z,93567.38
2022-11-17T16:03:40.937Z,93569.78
2022-11-17T16:06:08.497Z,93567.72
2022-11-17T16:08:35.355Z,93568.00
2022-11-17T16:11:02.429Z,93573.44
2022-11-17T16:13:32.866Z,93573.59
2022-11-17T16:15:59.728Z,93562.81
2022-11-17T16:18:26.646Z,93561.44
2022-11-17T16:20:53.303Z,93571.16
2022-11-17T16:23:19.950Z,93564.13
2022-11-17T16:25:48.334Z,93561.56
2022-11-17T16:28:16.510Z,93554.41
2022-11-17T16:30:43.270Z,93560.78
2022-11-17T16:33:16.366Z,93555.88
2022-11-17T16:35:45.347Z,93554.41
2022-11-17T16:38:16.820Z,93548.13
2022-11-17T16:40:43.725Z,93551.72
2022-11-17T16:43:12.356Z,93551.34
2022-11-17T16:45:44.393Z,93540.25
2022-11-17T16:48:12.368Z,93534.03
2022-11-17T16:50:41.015Z,93535.22
2022-11-17T16:53:07.713Z,93537.91
2022-11-17T16:55:37.575Z,93536.91
2022-11-17T16:58:05.834Z,93542.81
2022-11-17T17:00:34.767Z,93540.50
2022-11-17T17:03:01.991Z,93541.16
2022-11-17T17:05:31.471Z,93540.25
2022-11-17T17:07:58.073Z,93540.25
2022-11-17T17:10:24.665Z,93533.56
2022-11-17T17:12:51.247Z,93524.84
2022-11-17T17:15:17.951Z,93527.50
2022-11-17T17:17:44.492Z,93536.75
2022-11-17T17:20:11.357Z,93526.22
2022-11-17T17:22:37.905Z,93518.59
2022-11-17T17:25:04.911Z,93519.03
2022-11-17T17:27:31.583Z,93527.59
2022-11-17T17:29:58.190Z,93519.41
2022-11-17T17:32:24.819Z,93536.00
2022-11-17T17:34:51.616Z,93534.94
2022-11-17T17:37:18.342Z,93531.81
2022-11-17T17:39:45.135Z,93538.03
2022-11-17T17:42:12.455Z,93540.91
2022-11-17T17:44:38.986Z,93543.41
2022-11-17T17:47:05.629Z,93551.16
2022-11-17T17:49:32.326Z,93540.75
2022-11-17T17:51:58.894Z,93541.47
2022-11-17T17:54:26.174Z,93531.88
2022-11-17T17:56:53.006Z,93528.66
2022-11-17T17:59:20.025Z,93519.34
2022-11-17T18:01:47.540Z,93529.25
2022-11-17T18:04:16.087Z,93536.59
2022-11-17T18:06:47.285Z,93541.56
2022-11-17T18:09:15.574Z,93534.47
2022-11-17T18:11:45.925Z,93535.38
2022-11-17T18:14:13.282Z,93539.19
2022-11-17T18:16:40.244Z,93536.13
2022-11-17T18:19:09.106Z,93544.31
2022-11-17T18:21:36.172Z,93537.09
2022-11-17T18:24:03.784Z,93548.00
2022-11-17T18:26:35.923Z,93540.38
2022-11-17T18:29:05.620Z,93545.84
2022-11-17T18:31:34.486Z,93537.38
2022-11-17T18:34:03.636Z,93542.41
2022-11-17T18:36:30.845Z,93546.06
2022-11-17T18:39:00.311Z,93543.34
2022-11-17T18:41:27.475Z,93546.22
2022-11-17T18:43:54.817Z,93544.59
2022-11-17T18:46:23.314Z,93545.88
2022-11-17T18:48:51.872Z,93546.53
2022-11-17T18:51:24.155Z,93543.81
2022-11-17T18:53:52.361Z,93543.88
2022-11-17T18:56:21.650Z,93538.22
2022-11-17T18:58:48.340Z,93535.00
2022-11-17T19:01:22.266Z,93545.69
2022-11-17T19:03:49.781Z,93543.41
2022-11-17T19:06:18.091Z,93542.41
2022-11-17T19:08:45.180Z,93538.78
2022-11-17T19:11:12.342Z,93539.38
2022-11-17T19:13:41.180Z,93529.03
2022-11-17T19:16:10.647Z,93534.09
2022-11-17T19:18:37.953Z,93535.84
2022-11-17T19:21:07.862Z,93540.03
2022-11-17T19:23:36.033Z,93537.41
2022-11-17T19:26:05.144Z,93527.13
2022-11-17T19:28:32.631Z,93534.94
2022-11-17T19:31:07.670Z,93534.94
2022-11-17T19:33:36.541Z,93530.88
2022-11-17T19:36:17.888Z,93536.28
2022-11-17T19:38:47.105Z,93531.78
2022-11-17T19:41:15.810Z,93533.38
2022-11-17T19:43:45.485Z,93532.28
2022-11-17T19:46:16.949Z,93537.84
2022-11-17T19:48:44.966Z,93538.69
2022-11-17T19:51:13.207Z,93546.56
2022-11-17T19:53:40.013Z,93551.91
2022-11-17T19:56:07.110Z,93554.97
2022-11-17T19:58:33.809Z,93539.97
2022-11-17T20:01:07.576Z,93546.06
2022-11-17T20:03:34.885Z,93541.81
2022-11-17T20:06:01.887Z,93547.09
2022-11-17T20:08:29.769Z,93545.09
2022-11-17T20:11:10.315Z,93554.47
2022-11-17T20:13:37.633Z,93556.25
2022-11-17T20:16:11.808Z,93554.97
2022-11-17T20:18:38.720Z,93561.25
2022-11-17T20:21:06.492Z,93553.00
2022-11-17T20:23:35.214Z,93555.78
2022-11-17T20:26:07.012Z,93559.97
2022-11-17T20:28:35.663Z,93558.94
2022-11-17T20:31:10.316Z,93554.75
2022-11-17T20:33:38.355Z,93562.31
2022-11-17T20:36:05.763Z,93557.16
2022-11-17T20:38:32.497Z,93551.06
2022-11-17T20:41:00.547Z,93554.72
2022-11-17T20:43:28.249Z,93552.34
2022-11-17T20:45:55.882Z,93553.09
2022-11-17T20:48:23.565Z,93557.13
2022-11-17T20:51:00.452Z,93560.34
2022-11-17T20:53:28.094Z,93551.88
2022-11-17T20:55:56.082Z,93559.59
2022-11-17T20:58:23.768Z,93561.63
2022-11-17T21:00:50.669Z,93559.41
2022-11-17T21:03:17.428Z,93557.75
2022-11-17T21:05:43.986Z,93568.47
2022-11-17T21:08:10.595Z,93571.28
2022-11-17T21:10:37.293Z,93572.47
2022-11-17T21:13:03.950Z,93573.94
2022-11-17T21:15:30.533Z,93578.63
2022-11-17T21:18:15.582Z,93569.53
2022-11-17T21:20:42.727Z,93578.31
2022-11-17T21:23:09.298Z,93576.59
2022-11-17T21:25:36.578Z,93573.19
2022-11-17T21:28:03.248Z,93568.22
2022-11-17T21:30:29.878Z,93557.97
2022-11-17T21:32:56.433Z,93562.41
2022-11-17T21:35:22.955Z,93574.94
2022-11-17T21:37:49.563Z,93579.63
2022-11-17T21:40:16.553Z,93583.44
2022-11-17T21:42:44.133Z,93593.41
2022-11-17T21:45:10.967Z,93604.91
2022-11-17T21:47:37.579Z,93607.97
2022-11-17T21:50:04.476Z,93619.25
2022-11-17T21:52:31.074Z,93618.47
2022-11-17T21:54:57.703Z,93620.88
2022-11-17T21:57:24.308Z,93611.94
2022-11-17T21:59:50.928Z,93621.22
2022-11-17T22:02:17.509Z,93624.41
2022-11-17T22:04:44.077Z,93621.97
2022-11-17T22:07:10.714Z,93625.41
2022-11-17T22:09:37.446Z,93633.28
2022-11-17T22:12:04.181Z,93632.47
2022-11-17T22:14:31.445Z,93638.94
2022-11-17T22:16:58.028Z,93647.66
2022-11-17T22:19:28.478Z,93649.31
2022-11-17T22:21:55.091Z,93657.59
2022-11-17T22:24:21.816Z,93655.56
2022-11-17T22:26:48.851Z,93659.59
2022-11-17T22:29:18.518Z,93671.91
2022-11-17T22:31:46.327Z,93677.44
2022-11-17T22:34:13.650Z,93672.06
2022-11-17T22:36:40.251Z,93667.63
2022-11-17T22:39:06.946Z,93678.13
2022-11-17T22:41:33.588Z,93671.09
2022-11-17T22:44:00.423Z,93675.09
2022-11-17T22:46:28.069Z,93688.47
2022-11-17T22:48:54.893Z,93695.16
2022-11-17T22:51:40.654Z,93687.09
2022-11-17T22:54:08.520Z,93686.84
2022-11-17T22:56:35.968Z,93674.31
2022-11-17T22:59:02.630Z,93683.81
2022-11-17T23:01:29.172Z,93681.00
2022-11-17T23:03:55.782Z,93682.63
2022-11-17T23:06:22.753Z,93675.38
2022-11-17T23:08:49.705Z,93677.38
2022-11-17T23:11:36.075Z,93682.00
2022-11-17T23:14:03.107Z,93689.72
2022-11-17T23:16:29.981Z,93677.38
2022-11-17T23:18:56.946Z,93669.69
2022-11-17T23:21:23.789Z,93666.44
2022-11-17T23:23:51.054Z,93668.88
2022-11-17T23:26:18.049Z,93657.56
2022-11-17T23:28:45.129Z,93676.97
2022-11-17T23:31:13.833Z,93670.94
2022-11-17T23:33:42.512Z,93658.00
2022-11-17T23:36:14.044Z,93658.22
2022-11-17T23:38:40.581Z,93655.59
2022-11-17T23:41:10.194Z,93655.78
2022-11-17T23:43:36.784Z,93649.50
2022-11-17T23:46:05.729Z,93642.84
2022-11-17T23:48:32.462Z,93639.22
2022-11-17T23:50:59.190Z,93635.38
2022-11-17T23:53:25.920Z,93639.22
2022-11-17T23:55:56.484Z,93642.25
2022-11-17T23:58:24.178Z,93631.38
